Time;durP1;ratioP1;P1;durP2;ratioP2;P2;SDS_P1;SDS_P2;PMS_P1;PMS_P2;Temp;Humidity;BMP_temperature;BMP_pressure;BME280_temperature;BME280_humidity;BME280_pressure;Samples;Min_cycle;Max_cycle;Signal;HPM_P1;HPM_P2
2023/08/12 00:02:15;;;;;;;7.20;6.50;;;19.10;1.00;;;;;;5041719;28;20509;-74
2023/08/12 00:04:42;;;;;;;7.10;6.50;;;19.10;1.00;;;;;;5045069;28;20551;-73
2023/08/12 00:07:09;;;;;;;8.43;6.80;;;19.20;1.00;;;;;;5044153;28;20436;-72
2023/08/12 00:09:36;;;;;;;8.10;6.90;;;19.20;1.00;;;;;;5041949;28;20469;-73
2023/08/12 00:12:03;;;;;;;8.47;7.70;;;19.10;1.00;;;;;;5048475;28;20548;-72
2023/08/12 00:14:32;;;;;;;7.50;6.77;;;19.10;1.00;;;;;;5045952;28;20585;-71
2023/08/12 00:17:00;;;;;;;7.10;6.50;;;19.10;1.00;;;;;;5046205;28;20514;-72
2023/08/12 00:19:27;;;;;;;7.87;6.73;;;19.00;1.00;;;;;;5044339;28;20470;-73
2023/08/12 00:21:54;;;;;;;7.37;6.73;;;19.10;1.00;;;;;;5045265;28;20493;-71
2023/08/12 00:24:20;;;;;;;7.33;6.57;;;19.10;1.00;;;;;;5045361;28;21118;-71
2023/08/12 00:26:47;;;;;;;7.47;6.87;;;19.00;1.00;;;;;;5046879;28;20455;-72
2023/08/12 00:29:14;;;;;;;7.70;7.10;;;19.00;1.00;;;;;;5044489;28;20470;-73
2023/08/12 00:31:42;;;;;;;8.77;6.50;;;19.00;1.00;;;;;;5043012;28;20436;-70
2023/08/12 00:34:09;;;;;;;7.63;6.97;;;19.00;1.00;;;;;;5045976;28;21057;-73
2023/08/12 00:36:37;;;;;;;8.03;7.17;;;18.90;1.00;;;;;;5047425;28;20965;-72
2023/08/12 00:39:04;;;;;;;10.27;7.23;;;18.80;1.00;;;;;;5045605;28;20487;-75
2023/08/12 00:41:31;;;;;;;7.70;7.00;;;18.80;1.00;;;;;;5048083;28;20972;-72
2023/08/12 00:43:58;;;;;;;7.67;6.90;;;18.90;1.00;;;;;;5033850;28;20453;-73
2023/08/12 00:46:25;;;;;;;7.70;7.00;;;18.90;1.00;;;;;;5044040;28;20480;-73
2023/08/12 00:48:54;;;;;;;7.70;7.00;;;19.00;1.00;;;;;;5042772;28;20519;-72
2023/08/12 00:51:22;;;;;;;6.90;6.30;;;19.00;1.00;;;;;;5042888;28;20502;-72
2023/08/12 00:53:51;;;;;;;7.97;7.17;;;19.00;1.00;;;;;;5043492;28;20556;-72
2023/08/12 00:56:18;;;;;;;7.53;6.90;;;19.00;1.00;;;;;;5047258;28;20463;-72
2023/08/12 00:58:46;;;;;;;8.20;7.50;;;19.00;1.00;;;;;;5045876;28;20538;-72
2023/08/12 01:01:14;;;;;;;8.23;7.13;;;19.00;1.00;;;;;;5042540;28;20549;-73
2023/08/12 01:03:42;;;;;;;9.20;7.47;;;19.00;1.00;;;;;;5068856;23;20442;-74
2023/08/12 01:06:13;;;;;;;6.77;6.20;;;19.00;1.00;;;;;;5078371;27;20451;-74
2023/08/12 01:08:40;;;;;;;7.93;6.87;;;19.00;1.00;;;;;;5079204;28;20511;-74
2023/08/12 01:11:15;;;;;;;7.30;6.53;;;19.00;1.00;;;;;;5082024;27;20496;-74
2023/08/12 01:13:50;;;;;;;7.47;6.87;;;19.00;1.00;;;;;;5080256;27;20489;-74
2023/08/12 01:16:19;;;;;;;8.47;6.40;;;19.00;1.00;;;;;;5079392;28;20423;-74
2023/08/12 01:18:48;;;;;;;7.77;6.50;;;18.90;1.00;;;;;;5078857;28;20470;-75
2023/08/12 01:21:18;;;;;;;7.93;7.23;;;18.90;1.00;;;;;;5081028;28;20559;-74
2023/08/12 01:23:46;;;;;;;7.47;6.60;;;18.90;1.00;;;;;;5079767;28;20500;-74
2023/08/12 01:26:13;;;;;;;6.90;6.30;;;18.90;1.00;;;;;;5081036;28;20915;-73
2023/08/12 01:28:40;;;;;;;7.07;6.57;;;18.80;1.00;;;;;;5081825;28;20515;-73
2023/08/12 01:31:12;;;;;;;6.53;6.13;;;18.80;1.00;;;;;;5077135;28;20470;-74
2023/08/12 01:33:44;;;;;;;7.10;6.50;;;18.80;1.00;;;;;;5076568;28;20468;-74
2023/08/12 01:36:15;;;;;;;7.43;6.73;;;18.80;1.00;;;;;;5074285;27;20480;-74
2023/08/12 01:38:44;;;;;;;7.70;7.00;;;18.80;1.00;;;;;;5076618;28;20556;-74
2023/08/12 01:41:13;;;;;;;7.73;7.00;;;18.70;1.00;;;;;;5081688;28;20552;-74
2023/08/12 01:43:41;;;;;;;8.27;6.90;;;18.80;1.00;;;;;;5083802;28;20460;-74
2023/08/12 01:46:08;;;;;;;7.30;6.60;;;18.70;1.00;;;;;;5079728;28;20480;-74
2023/08/12 01:48:35;;;;;;;7.33;6.63;;;18.70;1.00;;;;;;5069614;27;20514;-73
2023/08/12 01:51:02;;;;;;;7.07;6.57;;;18.70;1.00;;;;;;5080089;27;20480;-74
2023/08/12 01:53:29;;;;;;;7.00;6.50;;;18.60;1.00;;;;;;5076252;28;20480;-74
2023/08/12 01:55:56;;;;;;;8.10;7.30;;;18.60;1.00;;;;;;5082840;28;21773;-74
2023/08/12 01:58:26;;;;;;;7.63;7.13;;;18.60;1.00;;;;;;5078618;28;20492;-74
2023/08/12 02:00:53;;;;;;;7.53;7.03;;;18.60;1.00;;;;;;5084614;28;20453;-74
2023/08/12 02:03:20;;;;;;;7.87;7.13;;;18.60;1.00;;;;;;5081551;28;20469;-74
2023/08/12 02:05:47;;;;;;;7.30;6.70;;;18.60;1.00;;;;;;5080420;28;20666;-74
2023/08/12 02:08:14;;;;;;;8.03;7.43;;;18.60;1.00;;;;;;5082440;28;20478;-74
2023/08/12 02:10:41;;;;;;;8.50;6.97;;;18.50;1.00;;;;;;5084054;28;20848;-74
2023/08/12 02:13:08;;;;;;;6.60;6.20;;;18.50;1.00;;;;;;5086937;28;20473;-74
2023/08/12 02:15:37;;;;;;;7.87;7.17;;;18.50;1.00;;;;;;5083356;28;20458;-73
2023/08/12 02:18:04;;;;;;;7.97;7.33;;;18.50;1.00;;;;;;5080921;28;20497;-74
2023/08/12 02:20:31;;;;;;;7.87;7.27;;;18.50;1.00;;;;;;5081826;28;21291;-75
2023/08/12 02:22:58;;;;;;;7.70;7.10;;;18.50;1.00;;;;;;5085022;28;20576;-75
2023/08/12 02:25:25;;;;;;;8.07;7.47;;;18.40;1.00;;;;;;5086671;28;20460;-75
2023/08/12 02:27:52;;;;;;;7.53;6.93;;;18.40;1.00;;;;;;5083339;28;20465;-76
2023/08/12 02:30:19;;;;;;;7.97;7.30;;;18.40;1.00;;;;;;5082537;28;20541;-73
2023/08/12 02:32:49;;;;;;;8.03;7.43;;;18.40;1.00;;;;;;5084601;28;21791;-73
2023/08/12 02:35:16;;;;;;;8.10;7.50;;;18.50;1.00;;;;;;5082299;28;20593;-73
2023/08/12 02:37:43;;;;;;;7.47;6.87;;;18.50;1.00;;;;;;5078298;28;21052;-73
2023/08/12 02:40:11;;;;;;;8.40;7.17;;;18.50;1.00;;;;;;5081522;28;20536;-73
2023/08/12 02:42:38;;;;;;;9.43;8.20;;;18.40;1.00;;;;;;5081000;28;20827;-74
2023/08/12 02:45:06;;;;;;;8.10;7.47;;;18.40;1.00;;;;;;5084789;28;20468;-74
2023/08/12 02:47:33;;;;;;;7.50;6.90;;;18.40;1.00;;;;;;5084338;28;20551;-74
2023/08/12 02:50:02;;;;;;;6.90;6.30;;;18.40;1.00;;;;;;5082928;27;20645;-74
2023/08/12 02:52:29;;;;;;;7.47;6.87;;;18.40;1.00;;;;;;5083993;28;22379;-74
2023/08/12 02:54:57;;;;;;;7.10;6.50;;;18.50;1.00;;;;;;5081769;28;20537;-74
2023/08/12 02:57:24;;;;;;;7.90;7.30;;;18.50;1.00;;;;;;5080580;28;20469;-74
2023/08/12 02:59:51;;;;;;;6.90;6.40;;;18.40;1.00;;;;;;5084194;28;20544;-75
2023/08/12 03:02:18;;;;;;;7.80;7.20;;;18.50;1.00;;;;;;5083214;28;20510;-74
2023/08/12 03:04:46;;;;;;;7.83;7.03;;;18.50;1.00;;;;;;5081525;28;20457;-75
2023/08/12 03:07:14;;;;;;;7.63;6.97;;;18.40;1.00;;;;;;5079790;28;20562;-74
2023/08/12 03:09:41;;;;;;;7.60;6.93;;;18.40;1.00;;;;;;5079670;28;20470;-74
2023/08/12 03:12:08;;;;;;;6.90;6.40;;;18.40;1.00;;;;;;5082863;28;21049;-76
2023/08/12 03:14:35;;;;;;;7.53;6.87;;;18.40;1.00;;;;;;5077726;28;20474;-76
2023/08/12 03:17:03;;;;;;;9.23;7.27;;;18.40;1.00;;;;;;5082886;27;20472;-77
2023/08/12 03:19:30;;;;;;;7.00;6.40;;;18.40;1.00;;;;;;5086426;27;20469;-76
2023/08/12 03:21:57;;;;;;;8.60;7.00;;;18.30;1.00;;;;;;5083342;28;21036;-75
2023/08/12 03:24:26;;;;;;;7.40;6.80;;;18.30;1.00;;;;;;5085268;28;20460;-76
2023/08/12 03:26:53;;;;;;;8.10;7.30;;;18.30;1.00;;;;;;5081495;28;20560;-75
2023/08/12 03:29:20;;;;;;;7.13;6.40;;;18.30;1.00;;;;;;5084616;28;20471;-73
2023/08/12 03:31:47;;;;;;;6.90;6.40;;;18.30;1.00;;;;;;5085540;28;20457;-74
2023/08/12 03:34:13;;;;;;;7.87;7.27;;;18.30;1.00;;;;;;5081463;27;20501;-75
2023/08/12 03:36:40;;;;;;;7.27;6.77;;;18.20;1.00;;;;;;5082230;28;20460;-76
2023/08/12 03:39:07;;;;;;;7.90;7.10;;;18.20;1.00;;;;;;5081387;28;20848;-75
2023/08/12 03:41:36;;;;;;;9.60;7.60;;;18.20;1.00;;;;;;5085223;28;20501;-74
2023/08/12 03:44:03;;;;;;;6.80;6.30;;;18.10;1.00;;;;;;5080701;27;20462;-73
2023/08/12 03:46:29;;;;;;;8.37;7.60;;;18.10;1.00;;;;;;5083881;27;20554;-73
2023/08/12 03:48:56;;;;;;;7.53;6.90;;;18.10;1.00;;;;;;5084537;27;20595;-74
2023/08/12 03:51:23;;;;;;;7.90;7.20;;;18.10;1.00;;;;;;5088158;28;20496;-74
2023/08/12 03:53:50;;;;;;;9.10;8.30;;;18.00;1.00;;;;;;5083308;28;20511;-75
2023/08/12 03:56:17;;;;;;;8.83;8.13;;;18.00;1.00;;;;;;5081692;28;20473;-75
2023/08/12 03:58:45;;;;;;;8.57;7.80;;;17.90;1.00;;;;;;5084606;28;20671;-75
2023/08/12 04:01:12;;;;;;;8.37;7.70;;;17.90;1.00;;;;;;5077195;28;20523;-76
2023/08/12 04:03:39;;;;;;;9.97;8.03;;;17.90;1.00;;;;;;5077417;28;20489;-75
2023/08/12 04:06:06;;;;;;;8.37;7.80;;;17.90;1.00;;;;;;5081056;28;20551;-74
2023/08/12 04:08:34;;;;;;;9.10;7.40;;;18.00;1.00;;;;;;5080347;28;20566;-74
2023/08/12 04:11:01;;;;;;;8.60;7.30;;;18.00;1.00;;;;;;5082283;28;20456;-73
2023/08/12 04:13:28;;;;;;;6.90;6.47;;;18.00;1.00;;;;;;5080083;28;20430;-75
2023/08/12 04:15:56;;;;;;;8.17;7.47;;;18.00;1.00;;;;;;5084295;28;20963;-74
2023/08/12 04:18:23;;;;;;;8.23;7.63;;;18.00;1.00;;;;;;5078254;27;20463;-74
2023/08/12 04:20:52;;;;;;;7.50;6.77;;;18.10;1.00;;;;;;5080718;28;20503;-74
2023/08/12 04:23:20;;;;;;;7.73;7.00;;;18.10;1.00;;;;;;5085905;27;20900;-74
2023/08/12 04:25:48;;;;;;;8.13;7.53;;;18.10;1.00;;;;;;5080384;28;20491;-74
2023/08/12 04:28:16;;;;;;;8.17;7.47;;;18.00;1.00;;;;;;5083610;28;20540;-74
2023/08/12 04:30:43;;;;;;;20.43;8.70;;;18.00;1.00;;;;;;5081806;28;20977;-74
2023/08/12 04:33:11;;;;;;;8.43;7.77;;;18.00;1.00;;;;;;5083361;27;20559;-75
2023/08/12 04:35:39;;;;;;;7.07;6.67;;;18.00;1.00;;;;;;5082388;27;20523;-74
2023/08/12 04:38:06;;;;;;;9.77;8.33;;;18.10;1.00;;;;;;5083874;28;20517;-74
2023/08/12 04:40:33;;;;;;;8.80;7.90;;;18.10;1.00;;;;;;5082042;27;20458;-74
2023/08/12 04:43:01;;;;;;;8.30;7.53;;;18.20;1.00;;;;;;5080489;28;21058;-74
2023/08/12 04:45:28;;;;;;;7.80;7.17;;;18.20;1.00;;;;;;5083420;28;22363;-74
2023/08/12 04:47:56;;;;;;;8.77;7.97;;;18.30;1.00;;;;;;5082179;28;21207;-74
2023/08/12 04:50:25;;;;;;;10.93;9.93;;;18.40;1.00;;;;;;5080739;28;21165;-75
2023/08/12 04:52:52;;;;;;;7.90;7.20;;;18.40;1.00;;;;;;5083726;28;20465;-74
2023/08/12 04:55:19;;;;;;;7.73;7.10;;;18.40;1.00;;;;;;5083576;28;20564;-75
2023/08/12 04:57:45;;;;;;;7.83;7.30;;;18.30;1.00;;;;;;5082508;28;20544;-72
2023/08/12 05:00:14;;;;;;;8.00;7.30;;;18.40;1.00;;;;;;5078340;28;20555;-74
2023/08/12 05:02:42;;;;;;;7.40;6.80;;;18.40;1.00;;;;;;5077948;28;20598;-75
2023/08/12 05:05:09;;;;;;;8.83;7.90;;;18.50;1.00;;;;;;5077165;28;20473;-74
2023/08/12 05:07:38;;;;;;;7.57;6.93;;;18.60;1.00;;;;;;5083812;28;20466;-74
2023/08/12 05:10:06;;;;;;;10.77;7.67;;;18.70;1.00;;;;;;5080359;28;20551;-75
2023/08/12 05:12:33;;;;;;;7.70;7.10;;;18.70;1.00;;;;;;5081815;27;20545;-75
2023/08/12 05:15:00;;;;;;;9.37;8.43;;;18.80;1.00;;;;;;5080615;28;20472;-73
2023/08/12 05:17:30;;;;;;;8.23;7.53;;;18.80;1.00;;;;;;5078832;28;20931;-74
2023/08/12 05:19:57;;;;;;;9.17;8.40;;;18.90;1.00;;;;;;5077681;28;20544;-74
2023/08/12 05:22:24;;;;;;;7.23;6.60;;;19.00;1.00;;;;;;5080618;27;20497;-74
2023/08/12 05:24:52;;;;;;;6.63;6.23;;;19.10;1.00;;;;;;5083195;28;20940;-74
2023/08/12 05:27:19;;;;;;;8.27;7.43;;;19.30;1.00;;;;;;5080236;28;20901;-74
2023/08/12 05:29:46;;;;;;;7.53;6.90;;;19.40;1.00;;;;;;5085201;28;20488;-74
2023/08/12 05:32:13;;;;;;;6.90;6.30;;;19.50;1.00;;;;;;5083491;28;20561;-73
2023/08/12 05:34:39;;;;;;;7.00;6.30;;;19.70;1.00;;;;;;5082723;28;20508;-74
2023/08/12 05:37:06;;;;;;;8.10;6.83;;;19.90;1.00;;;;;;5085964;28;20524;-74
2023/08/12 05:39:33;;;;;;;7.00;6.50;;;20.10;1.00;;;;;;5084218;27;20448;-74
2023/08/12 05:42:03;;;;;;;6.00;5.50;;;20.20;1.00;;;;;;5086999;27;20517;-73
2023/08/12 05:44:30;;;;;;;6.47;6.07;;;20.30;1.00;;;;;;5082019;28;20624;-74
2023/08/12 05:46:57;;;;;;;6.63;6.03;;;20.50;1.00;;;;;;5084209;28;20478;-74
2023/08/12 05:49:24;;;;;;;6.77;6.27;;;20.60;1.00;;;;;;5084592;28;20477;-74
2023/08/12 05:51:51;;;;;;;6.43;5.20;;;20.80;1.00;;;;;;5087431;28;20488;-73
2023/08/12 05:54:18;;;;;;;6.10;5.60;;;21.00;1.00;;;;;;5087074;28;20512;-74
2023/08/12 05:56:45;;;;;;;6.63;6.13;;;21.20;1.00;;;;;;5088458;28;20618;-74
2023/08/12 05:59:14;;;;;;;6.63;6.03;;;21.30;1.00;;;;;;5083496;28;20525;-74
2023/08/12 06:01:41;;;;;;;6.37;5.87;;;21.40;1.00;;;;;;5082971;28;20524;-75
2023/08/12 06:04:08;;;;;;;6.00;5.40;;;21.40;1.00;;;;;;5089058;28;20563;-75
2023/08/12 06:06:35;;;;;;;5.30;4.90;;;21.50;1.00;;;;;;5084699;28;20507;-75
2023/08/12 06:09:02;;;;;;;5.60;5.20;;;21.70;1.00;;;;;;5087715;27;20461;-75
2023/08/12 06:11:29;;;;;;;7.43;5.67;;;21.60;1.00;;;;;;5085833;27;20880;-75
2023/08/12 06:13:56;;;;;;;6.50;5.50;;;21.70;1.00;;;;;;5079721;28;20551;-76
2023/08/12 06:16:24;;;;;;;7.10;5.90;;;21.80;1.00;;;;;;5082462;28;20466;-76
2023/08/12 06:18:51;;;;;;;6.10;5.60;;;21.80;1.00;;;;;;5081127;27;21494;-76
2023/08/12 06:21:18;;;;;;;5.93;5.53;;;21.90;1.00;;;;;;5084025;27;20466;-75
2023/08/12 06:23:45;;;;;;;6.20;5.80;;;22.00;1.00;;;;;;5081083;28;20482;-75
2023/08/12 06:26:12;;;;;;;5.53;5.00;;;22.00;1.00;;;;;;5081448;28;20427;-75
2023/08/12 06:28:39;;;;;;;5.73;5.03;;;22.10;1.00;;;;;;5083609;27;20523;-76
2023/08/12 06:31:06;;;;;;;6.00;5.50;;;22.10;1.00;;;;;;5079939;28;20548;-76
2023/08/12 06:33:36;;;;;;;6.20;5.67;;;22.20;1.00;;;;;;5082585;28;20496;-74
2023/08/12 06:36:03;;;;;;;7.53;5.87;;;22.20;1.00;;;;;;5084380;28;20487;-76
2023/08/12 06:38:30;;;;;;;8.27;5.53;;;22.20;1.00;;;;;;5083482;28;20542;-76
2023/08/12 06:40:57;;;;;;;6.20;5.47;;;22.10;1.00;;;;;;5081081;28;20461;-76
2023/08/12 06:43:24;;;;;;;5.60;5.17;;;22.10;1.00;;;;;;5082592;28;20481;-76
2023/08/12 06:45:51;;;;;;;5.80;5.30;;;22.20;1.00;;;;;;5081628;27;20617;-76
2023/08/12 06:48:18;;;;;;;7.03;6.27;;;22.20;1.00;;;;;;5086730;28;20463;-76
2023/08/12 06:50:46;;;;;;;6.60;5.73;;;22.30;1.00;;;;;;5082854;28;20938;-76
2023/08/12 06:53:16;;;;;;;6.57;6.07;;;22.30;1.00;;;;;;5084056;28;20486;-76
2023/08/12 06:55:46;;;;;;;6.10;5.20;;;22.40;1.00;;;;;;5083034;28;20869;-76
2023/08/12 06:58:14;;;;;;;6.10;5.60;;;22.60;1.00;;;;;;5078815;28;20464;-76
2023/08/12 07:00:41;;;;;;;6.07;5.47;;;22.60;1.00;;;;;;5083711;28;20464;-76
2023/08/12 07:03:08;;;;;;;6.23;5.63;;;22.60;1.00;;;;;;5082141;28;20482;-76
2023/08/12 07:05:35;;;;;;;6.20;5.70;;;22.60;1.00;;;;;;5082124;28;20449;-77
2023/08/12 07:08:04;;;;;;;5.87;5.37;;;22.50;1.00;;;;;;5080894;28;20505;-76
2023/08/12 07:10:31;;;;;;;5.77;5.37;;;22.60;1.00;;;;;;5083762;28;20554;-77
2023/08/12 07:12:58;;;;;;;5.80;5.37;;;22.70;1.00;;;;;;5083310;28;20968;-76
2023/08/12 07:15:27;;;;;;;6.10;5.60;;;22.70;1.00;;;;;;5082048;28;20997;-76
2023/08/12 07:17:54;;;;;;;5.60;5.07;;;22.80;1.00;;;;;;5083051;27;20458;-76
2023/08/12 07:20:21;;;;;;;6.03;5.63;;;22.70;1.00;;;;;;5078072;28;20559;-76
2023/08/12 07:22:48;;;;;;;6.57;5.20;;;22.70;1.00;;;;;;5080521;28;20983;-76
2023/08/12 07:25:18;;;;;;;6.93;6.30;;;22.80;1.00;;;;;;5084546;28;20562;-75
2023/08/12 07:27:45;;;;;;;5.93;5.50;;;22.80;1.00;;;;;;5083628;28;20552;-77
2023/08/12 07:30:13;;;;;;;6.70;6.20;;;23.00;1.00;;;;;;5082883;28;20500;-74
2023/08/12 07:32:40;;;;;;;6.47;5.80;;;23.30;1.00;;;;;;5084987;28;20555;-76
2023/08/12 07:35:08;;;;;;;7.43;6.60;;;23.60;1.00;;;;;;5084908;28;20561;-74
2023/08/12 07:37:35;;;;;;;6.07;5.47;;;24.00;1.00;;;;;;5084200;28;20452;-75
2023/08/12 07:40:03;;;;;;;6.03;5.50;;;24.20;1.00;;;;;;5088674;28;20973;-75
2023/08/12 07:42:32;;;;;;;6.30;5.70;;;24.40;1.00;;;;;;5081206;28;20473;-76
2023/08/12 07:44:59;;;;;;;7.13;6.50;;;24.30;1.00;;;;;;5085949;28;20938;-76
2023/08/12 07:47:26;;;;;;;6.00;5.50;;;24.30;1.00;;;;;;5084067;27;20620;-75
2023/08/12 07:49:54;;;;;;;7.00;6.50;;;24.50;1.00;;;;;;5085111;28;21010;-75
2023/08/12 07:52:21;;;;;;;6.20;5.70;;;24.50;1.00;;;;;;5085139;28;20478;-74
2023/08/12 07:54:47;;;;;;;6.03;5.30;;;24.70;1.00;;;;;;5082342;28;20458;-74
2023/08/12 07:57:14;;;;;;;6.73;6.23;;;24.70;1.00;;;;;;5080688;28;20543;-74
2023/08/12 07:59:43;;;;;;;6.63;6.03;;;24.80;1.00;;;;;;5083116;28;20561;-74
2023/08/12 08:02:10;;;;;;;7.43;6.47;;;25.10;1.00;;;;;;5084479;28;20470;-74
2023/08/12 08:04:37;;;;;;;7.50;6.27;;;25.20;1.00;;;;;;5083087;28;20917;-74
2023/08/12 08:07:04;;;;;;;8.40;6.57;;;25.40;1.00;;;;;;5083158;28;20472;-75
2023/08/12 08:09:31;;;;;;;7.67;5.60;;;25.50;1.00;;;;;;5084920;28;20506;-74
2023/08/12 08:11:58;;;;;;;6.13;5.53;;;25.70;1.00;;;;;;5081978;28;20476;-74
2023/08/12 08:14:28;;;;;;;6.23;5.73;;;25.80;1.00;;;;;;5077956;28;20583;-74
2023/08/12 08:16:56;;;;;;;6.80;6.30;;;26.10;1.00;;;;;;5098268;27;20465;-74
2023/08/12 08:19:23;;;;;;;10.00;5.97;;;26.30;1.00;;;;;;5084423;28;20645;-73
2023/08/12 08:21:50;;;;;;;6.00;5.40;;;26.50;1.00;;;;;;5081199;28;20471;-73
2023/08/12 08:24:17;;;;;;;5.87;5.37;;;26.30;1.00;;;;;;5084794;28;20457;-74
2023/08/12 08:26:45;;;;;;;5.83;5.43;;;26.10;1.00;;;;;;5080276;28;20486;-74
2023/08/12 08:29:12;;;;;;;11.23;6.60;;;26.10;1.00;;;;;;5084687;28;20854;-73
2023/08/12 08:31:39;;;;;;;7.40;6.57;;;26.20;1.00;;;;;;5082133;28;21061;-74
2023/08/12 08:34:09;;;;;;;6.20;5.70;;;26.20;1.00;;;;;;5084322;28;20451;-75
2023/08/12 08:36:36;;;;;;;7.27;6.67;;;26.10;1.00;;;;;;5074812;28;20461;-74
2023/08/12 08:39:04;;;;;;;8.37;6.83;;;26.00;1.00;;;;;;5084436;28;20574;-74
2023/08/12 08:41:32;;;;;;;7.10;5.73;;;25.80;1.00;;;;;;5086301;28;20501;-75
2023/08/12 08:44:04;;;;;;;6.23;5.63;;;25.70;1.00;;;;;;5084369;28;20462;-74
2023/08/12 08:46:31;;;;;;;7.20;6.50;;;25.60;1.00;;;;;;5082120;28;20455;-74
2023/08/12 08:49:00;;;;;;;6.53;6.00;;;25.40;1.00;;;;;;5082441;28;20524;-74
2023/08/12 08:51:31;;;;;;;6.20;5.60;;;25.30;1.00;;;;;;5083792;27;20929;-75
2023/08/12 08:53:58;;;;;;;8.03;6.47;;;25.20;1.00;;;;;;5085992;28;20452;-74
2023/08/12 08:56:27;;;;;;;6.20;5.60;;;25.10;1.00;;;;;;5076114;28;20868;-76
2023/08/12 08:58:54;;;;;;;6.07;5.43;;;25.10;1.00;;;;;;5084153;28;20537;-75
2023/08/12 09:01:24;;;;;;;6.93;6.33;;;25.10;1.00;;;;;;5082804;28;20601;-74
2023/08/12 09:03:54;;;;;;;6.37;5.67;;;25.10;1.00;;;;;;5078162;27;20858;-74
2023/08/12 09:06:23;;;;;;;7.60;6.83;;;25.10;1.00;;;;;;5093209;27;20497;-75
2023/08/12 09:08:53;;;;;;;7.70;6.90;;;25.10;1.00;;;;;;5083701;28;20492;-74
2023/08/12 09:11:21;;;;;;;6.90;6.23;;;25.10;1.00;;;;;;5086219;27;20483;-73
2023/08/12 09:13:49;;;;;;;6.67;6.10;;;25.10;1.00;;;;;;5083015;28;20542;-75
2023/08/12 09:16:16;;;;;;;9.27;6.03;;;25.20;1.00;;;;;;5083041;28;20952;-73
2023/08/12 09:18:45;;;;;;;6.50;5.80;;;25.10;1.00;;;;;;5084351;28;20941;-74
2023/08/12 09:21:12;;;;;;;7.40;6.80;;;25.10;1.00;;;;;;5084739;27;20484;-75
2023/08/12 09:23:40;;;;;;;8.50;7.67;;;25.20;1.00;;;;;;5083947;28;20459;-74
2023/08/12 09:26:14;;;;;;;10.83;7.87;;;25.30;1.00;;;;;;5082770;28;20599;-74
2023/08/12 09:28:41;;;;;;;7.30;6.70;;;25.60;1.00;;;;;;5087375;28;20451;-79
2023/08/12 09:31:08;;;;;;;7.63;6.90;;;25.90;1.00;;;;;;5081959;28;20475;-79
2023/08/12 09:33:40;;;;;;;6.50;6.10;;;26.10;1.00;;;;;;5083044;28;20464;-78
2023/08/12 09:36:07;;;;;;;7.00;6.30;;;26.40;1.00;;;;;;5085661;28;20450;-78
2023/08/12 09:38:34;;;;;;;6.37;5.80;;;26.80;1.00;;;;;;5079859;28;20638;-74
2023/08/12 09:41:02;;;;;;;7.33;5.87;;;27.40;1.00;;;;;;5082405;28;21069;-76
2023/08/12 09:43:30;;;;;;;7.17;6.40;;;27.80;1.00;;;;;;5079859;28;20546;-76
2023/08/12 09:45:59;;;;;;;9.07;6.70;;;28.10;1.00;;;;;;5083362;27;20933;-77
2023/08/12 09:48:26;;;;;;;6.87;6.27;;;28.10;1.00;;;;;;5082817;27;21018;-76
2023/08/12 09:50:54;;;;;;;6.50;5.90;;;27.70;1.00;;;;;;5078207;27;20468;-78
2023/08/12 09:53:23;;;;;;;7.17;6.57;;;27.40;1.00;;;;;;5081806;28;20503;-78
2023/08/12 09:55:53;;;;;;;5.83;5.43;;;27.20;1.00;;;;;;5082307;28;20503;-78
2023/08/12 09:58:24;;;;;;;7.10;6.50;;;27.10;1.00;;;;;;5079307;28;20491;-77
2023/08/12 10:00:53;;;;;;;6.10;5.60;;;26.90;1.00;;;;;;5084688;28;20572;-79
2023/08/12 10:03:22;;;;;;;6.27;5.80;;;27.10;1.00;;;;;;5080971;28;20459;-79
2023/08/12 10:05:49;;;;;;;6.73;6.23;;;27.20;1.00;;;;;;5084373;27;20619;-77
2023/08/12 10:08:17;;;;;;;7.30;6.80;;;27.30;1.00;;;;;;5080965;28;22255;-78
2023/08/12 10:10:44;;;;;;;6.87;6.37;;;27.60;1.00;;;;;;5081685;27;20981;-78
2023/08/12 10:13:12;;;;;;;7.23;6.30;;;27.60;1.00;;;;;;5084041;28;20544;-78
2023/08/12 10:16:04;;;;;;;6.90;6.40;;;27.70;1.00;;;;;;5085785;28;20564;-78
2023/08/12 10:18:32;;;;;;;6.43;6.03;;;27.60;1.00;;;;;;5077904;28;20536;-78
2023/08/12 10:21:01;;;;;;;7.20;6.20;;;27.70;1.00;;;;;;5086815;28;20524;-78
2023/08/12 10:23:30;;;;;;;6.70;6.10;;;27.70;1.00;;;;;;5084922;28;20456;-77
2023/08/12 10:25:58;;;;;;;7.17;6.67;;;27.80;1.00;;;;;;5085167;28;20500;-77
2023/08/12 10:28:25;;;;;;;6.97;6.47;;;27.90;1.00;;;;;;5085239;28;20599;-78
2023/08/12 10:30:53;;;;;;;8.13;7.43;;;27.70;1.00;;;;;;5088614;28;20476;-78
2023/08/12 10:33:22;;;;;;;6.90;6.40;;;27.70;1.00;;;;;;5082518;28;20457;-77
2023/08/12 10:35:50;;;;;;;6.70;5.97;;;27.60;1.00;;;;;;5081884;28;20524;-79
2023/08/12 10:38:20;;;;;;;7.50;6.90;;;27.50;1.00;;;;;;5087184;28;21800;-74
2023/08/12 10:40:47;;;;;;;9.20;6.77;;;27.70;1.00;;;;;;5085503;28;20547;-75
2023/08/12 10:43:15;;;;;;;7.73;7.00;;;27.60;1.00;;;;;;5080221;28;20536;-74
2023/08/12 10:45:44;;;;;;;7.87;7.27;;;27.60;1.00;;;;;;5084385;28;20993;-73
2023/08/12 10:48:18;;;;;;;7.53;6.83;;;27.70;1.00;;;;;;5081900;28;20595;-71
2023/08/12 10:50:48;;;;;;;7.17;6.53;;;27.60;1.00;;;;;;5083158;28;20460;-73
2023/08/12 10:53:29;;;;;;;9.17;7.50;;;27.70;1.00;;;;;;5079968;28;20452;-74
2023/08/12 10:55:58;;;;;;;8.37;7.67;;;27.70;1.00;;;;;;5085970;28;20972;-73
2023/08/12 10:58:34;;;;;;;8.13;7.53;;;27.70;1.00;;;;;;5078622;28;21641;-73
2023/08/12 11:01:01;;;;;;;7.00;6.57;;;27.80;1.00;;;;;;5084876;28;20483;-76
2023/08/12 11:03:33;;;;;;;7.67;7.07;;;28.20;1.00;;;;;;5082572;28;20981;-73
2023/08/12 11:06:03;;;;;;;6.80;6.30;;;28.40;1.00;;;;;;5083835;27;20808;-74
2023/08/12 11:08:30;;;;;;;7.00;6.40;;;28.70;1.00;;;;;;5082326;28;20462;-74
2023/08/12 11:10:58;;;;;;;7.07;6.47;;;29.00;1.00;;;;;;5084672;28;21120;-76
2023/08/12 11:13:28;;;;;;;7.23;6.73;;;29.20;1.00;;;;;;5082667;28;20851;-74
2023/08/12 11:16:07;;;;;;;7.07;6.60;;;29.30;1.00;;;;;;5066167;28;20962;-74
2023/08/12 11:18:34;;;;;;;6.70;6.10;;;29.30;1.00;;;;;;5075159;28;20446;-74
2023/08/12 11:21:04;;;;;;;7.83;7.23;;;29.10;1.00;;;;;;5084647;28;20982;-74
2023/08/12 11:23:31;;;;;;;8.37;7.70;;;28.90;1.00;;;;;;5079376;28;20551;-73
2023/08/12 11:25:59;;;;;;;6.93;6.40;;;28.90;1.00;;;;;;5080681;28;20463;-75
2023/08/12 11:28:26;;;;;;;7.83;7.23;;;28.90;1.00;;;;;;5085519;28;20450;-75
2023/08/12 11:30:53;;;;;;;8.10;7.30;;;28.80;1.00;;;;;;5082828;28;20454;-73
2023/08/12 11:33:21;;;;;;;11.80;6.93;;;28.70;1.00;;;;;;5081430;28;20450;-73
2023/08/12 11:35:48;;;;;;;6.90;6.30;;;28.70;1.00;;;;;;5083090;28;20941;-73
2023/08/12 11:38:17;;;;;;;7.07;6.57;;;28.50;1.00;;;;;;5079968;28;21183;-73
2023/08/12 11:40:44;;;;;;;6.63;6.13;;;28.30;1.00;;;;;;5078122;28;20527;-75
2023/08/12 11:43:11;;;;;;;5.87;5.40;;;28.30;1.00;;;;;;5074793;28;20504;-75
2023/08/12 11:45:42;;;;;;;5.33;4.93;;;28.20;1.00;;;;;;5079410;28;20462;-73
2023/08/12 11:48:10;;;;;;;6.20;5.70;;;28.00;1.00;;;;;;5082825;28;20507;-75
2023/08/12 11:50:37;;;;;;;6.50;5.90;;;27.70;1.00;;;;;;5077948;28;20464;-77
2023/08/12 11:53:04;;;;;;;5.90;5.50;;;27.60;1.00;;;;;;5077852;28;20473;-74
2023/08/12 11:55:33;;;;;;;5.90;5.47;;;27.50;1.00;;;;;;5080642;28;20440;-76
2023/08/12 11:58:00;;;;;;;5.67;5.30;;;27.50;1.00;;;;;;5074535;28;21013;-77
2023/08/12 12:00:27;;;;;;;5.90;5.50;;;27.60;1.00;;;;;;5078694;28;20558;-77
2023/08/12 12:02:55;;;;;;;5.40;5.00;;;27.60;1.00;;;;;;5082306;28;20971;-76
2023/08/12 12:05:24;;;;;;;5.83;5.30;;;27.50;1.00;;;;;;5080868;28;20536;-75
2023/08/12 12:07:51;;;;;;;6.20;5.70;;;27.50;1.00;;;;;;5076182;28;20477;-74
2023/08/12 12:10:20;;;;;;;5.70;5.20;;;27.70;1.00;;;;;;5078378;27;20522;-76
2023/08/12 12:12:48;;;;;;;5.57;5.27;;;27.80;1.00;;;;;;5077808;28;20501;-76
2023/08/12 12:15:15;;;;;;;7.13;6.57;;;27.80;1.00;;;;;;5075524;28;20615;-77
2023/08/12 12:17:46;;;;;;;5.97;5.30;;;27.80;1.00;;;;;;5077606;28;20452;-78
2023/08/12 12:20:14;;;;;;;6.80;6.20;;;27.70;1.00;;;;;;5076130;28;20476;-78
2023/08/12 12:22:45;;;;;;;6.10;5.70;;;27.70;1.00;;;;;;5076158;28;20591;-77
2023/08/12 12:25:13;;;;;;;6.27;5.70;;;27.60;1.00;;;;;;5080885;28;20963;-77
2023/08/12 12:27:42;;;;;;;12.87;11.60;;;27.40;1.00;;;;;;5083140;27;20507;-76
2023/08/12 12:30:13;;;;;;;6.87;6.33;;;27.40;1.00;;;;;;5079275;28;20475;-75
2023/08/12 12:32:40;;;;;;;6.57;5.97;;;27.10;1.00;;;;;;5078182;28;20516;-77
2023/08/12 12:35:08;;;;;;;6.43;5.83;;;27.10;1.00;;;;;;5085827;28;21057;-76
2023/08/12 12:37:36;;;;;;;6.27;5.70;;;27.10;1.00;;;;;;5083116;28;20458;-77
2023/08/12 12:40:05;;;;;;;7.17;6.57;;;27.00;1.00;;;;;;5079724;28;20477;-76
2023/08/12 12:42:32;;;;;;;5.87;5.47;;;26.90;1.00;;;;;;5080051;28;20451;-76
2023/08/12 12:44:59;;;;;;;6.83;6.07;;;26.70;1.00;;;;;;5076846;27;20859;-77
2023/08/12 12:47:29;;;;;;;6.73;6.23;;;26.60;1.00;;;;;;5081701;27;20534;-77
2023/08/12 12:49:56;;;;;;;6.60;6.20;;;26.50;1.00;;;;;;5077571;28;20934;-76
2023/08/12 12:52:22;;;;;;;7.20;6.70;;;26.30;1.00;;;;;;5083212;28;20633;-78
2023/08/12 12:54:49;;;;;;;6.67;6.13;;;26.30;1.00;;;;;;5077688;28;20553;-76
2023/08/12 12:57:16;;;;;;;7.93;5.70;;;26.50;1.00;;;;;;5075676;28;20520;-75
2023/08/12 12:59:43;;;;;;;6.90;6.33;;;27.00;1.00;;;;;;5076000;28;20486;-73
2023/08/12 13:02:10;;;;;;;6.20;5.70;;;27.60;1.00;;;;;;5077351;28;20995;-73